Weather at Medina Memorial Hospital Heliport

Public forecast

Using degrees Fahrenheit for public forecast. Weather courtesy of forecast.io.

Closest aviation weather report (METAR) to Medina Memorial Hospital Heliport

Closest report is Genesee County Airport, 15.3 nm (28.3 km) SE.

2024/05/28 01:04 (retrieved 18 minutes ago)

KGVQ 280104Z AUTO 24018G28KT 10SM BKN022 BKN038 17/13 A2962 RMK AO2

Closest aviation forecast (TAF) to Medina Memorial Hospital Heliport

Closest forecast is Niagara District Airport, 33.9 nm (62.8 km) W.

2024/05/27 20:00 (retrieved 5 hours ago)

TAF CYSN 271940Z 2720/2801 23020G30KT P6SM BKN030 OVC120 TEMPO 2720/2801 BKN020 OVC120 BECMG 2722/2724 23015KT RMK NXT FCST BY 281300Z